sensor_id;sensor_type;location;lat;lon;timestamp;P1;durP1;ratioP1;P2;durP2;ratioP2
51485;SDS011;37565;51.352;6.412;2023-02-21T00:05:19;36.75;;;26.58;;
51485;SDS011;37565;51.352;6.412;2023-02-21T19:57:48;10.88;;;4.38;;
51485;SDS011;37565;51.352;6.412;2023-02-21T20:00:16;13.10;;;3.80;;
51485;SDS011;37565;51.352;6.412;2023-02-21T20:02:44;7.50;;;3.92;;
51485;SDS011;37565;51.352;6.412;2023-02-21T20:05:14;16.58;;;6.47;;
51485;SDS011;37565;51.352;6.412;2023-02-21T20:07:43;19.02;;;10.57;;
51485;SDS011;37565;51.352;6.412;2023-02-21T20:10:11;18.38;;;9.07;;
51485;SDS011;37565;51.352;6.412;2023-02-21T20:12:42;18.75;;;11.88;;
51485;SDS011;37565;51.352;6.412;2023-02-21T20:15:11;15.68;;;10.55;;
51485;SDS011;37565;51.352;6.412;2023-02-21T20:17:39;19.58;;;12.10;;
51485;SDS011;37565;51.352;6.412;2023-02-21T20:20:07;22.67;;;11.60;;
51485;SDS011;37565;51.352;6.412;2023-02-21T20:22:37;22.10;;;10.38;;
51485;SDS011;37565;51.352;6.412;2023-02-21T20:25:06;25.73;;;10.98;;
51485;SDS011;37565;51.352;6.412;2023-02-21T20:27:34;19.00;;;12.40;;
51485;SDS011;37565;51.352;6.412;2023-02-21T20:30:03;23.92;;;11.85;;
51485;SDS011;37565;51.352;6.412;2023-02-21T20:32:33;18.83;;;11.07;;
51485;SDS011;37565;51.352;6.412;2023-02-21T20:35:01;16.15;;;11.43;;
51485;SDS011;37565;51.352;6.412;2023-02-21T20:37:29;22.92;;;12.38;;
51485;SDS011;37565;51.352;6.412;2023-02-21T20:39:58;20.55;;;13.38;;
51485;SDS011;37565;51.352;6.412;2023-02-21T20:42:26;28.15;;;15.25;;
51485;SDS011;37565;51.352;6.412;2023-02-21T20:44:54;19.15;;;13.13;;
51485;SDS011;37565;51.352;6.412;2023-02-21T20:47:22;24.25;;;16.00;;
51485;SDS011;37565;51.352;6.412;2023-02-21T20:49:51;20.50;;;12.93;;
51485;SDS011;37565;51.352;6.412;2023-02-21T20:52:19;19.40;;;12.15;;
51485;SDS011;37565;51.352;6.412;2023-02-21T20:54:47;19.42;;;12.40;;
51485;SDS011;37565;51.352;6.412;2023-02-21T20:57:15;19.05;;;13.20;;
51485;SDS011;37565;51.352;6.412;2023-02-21T20:59:44;19.00;;;11.90;;
51485;SDS011;37565;51.352;6.412;2023-02-21T21:02:12;20.40;;;13.02;;
51485;SDS011;37565;51.352;6.412;2023-02-21T21:04:40;21.90;;;13.55;;
51485;SDS011;37565;51.352;6.412;2023-02-21T21:07:13;21.15;;;14.88;;
51485;SDS011;37565;51.352;6.412;2023-02-21T21:09:45;20.50;;;14.27;;
51485;SDS011;37565;51.352;6.412;2023-02-21T21:12:15;21.70;;;13.07;;
51485;SDS011;37565;51.352;6.412;2023-02-21T21:14:45;24.35;;;14.50;;
51485;SDS011;37565;51.352;6.412;2023-02-21T21:17:15;23.40;;;14.20;;
51485;SDS011;37565;51.352;6.412;2023-02-21T21:19:46;20.98;;;13.07;;
51485;SDS011;37565;51.352;6.412;2023-02-21T21:22:16;22.85;;;15.07;;
51485;SDS011;37565;51.352;6.412;2023-02-21T21:24:46;21.08;;;13.80;;
51485;SDS011;37565;51.352;6.412;2023-02-21T21:27:16;22.38;;;14.73;;
51485;SDS011;37565;51.352;6.412;2023-02-21T21:29:44;28.75;;;17.25;;
51485;SDS011;37565;51.352;6.412;2023-02-21T21:32:13;25.10;;;14.60;;
51485;SDS011;37565;51.352;6.412;2023-02-21T21:34:43;31.15;;;18.58;;
51485;SDS011;37565;51.352;6.412;2023-02-21T21:37:12;20.25;;;13.88;;
51485;SDS011;37565;51.352;6.412;2023-02-21T21:39:43;19.95;;;13.55;;
51485;SDS011;37565;51.352;6.412;2023-02-21T21:42:11;20.25;;;12.13;;
51485;SDS011;37565;51.352;6.412;2023-02-21T21:44:43;20.15;;;12.70;;
51485;SDS011;37565;51.352;6.412;2023-02-21T21:47:18;23.23;;;13.50;;
51485;SDS011;37565;51.352;6.412;2023-02-21T21:49:46;21.58;;;12.05;;
51485;SDS011;37565;51.352;6.412;2023-02-21T21:52:15;23.10;;;14.40;;
51485;SDS011;37565;51.352;6.412;2023-02-21T21:54:46;26.90;;;15.15;;
51485;SDS011;37565;51.352;6.412;2023-02-21T21:57:15;28.05;;;17.60;;
51485;SDS011;37565;51.352;6.412;2023-02-21T21:59:47;26.42;;;16.55;;
51485;SDS011;37565;51.352;6.412;2023-02-21T22:02:15;29.17;;;18.05;;
51485;SDS011;37565;51.352;6.412;2023-02-21T22:04:43;30.25;;;18.90;;
51485;SDS011;37565;51.352;6.412;2023-02-21T22:07:13;29.33;;;18.55;;
51485;SDS011;37565;51.352;6.412;2023-02-21T22:09:42;28.38;;;19.27;;
51485;SDS011;37565;51.352;6.412;2023-02-21T22:12:15;33.03;;;21.90;;
51485;SDS011;37565;51.352;6.412;2023-02-21T22:14:44;28.73;;;20.20;;
51485;SDS011;37565;51.352;6.412;2023-02-21T22:17:12;34.55;;;21.38;;
51485;SDS011;37565;51.352;6.412;2023-02-21T22:19:40;30.00;;;20.95;;
51485;SDS011;37565;51.352;6.412;2023-02-21T22:22:08;29.55;;;18.80;;
51485;SDS011;37565;51.352;6.412;2023-02-21T22:24:37;28.90;;;19.52;;
51485;SDS011;37565;51.352;6.412;2023-02-21T22:27:06;31.05;;;20.42;;
51485;SDS011;37565;51.352;6.412;2023-02-21T22:29:35;30.17;;;20.15;;
51485;SDS011;37565;51.352;6.412;2023-02-21T22:32:04;32.92;;;21.45;;
51485;SDS011;37565;51.352;6.412;2023-02-21T22:34:32;34.10;;;21.98;;
51485;SDS011;37565;51.352;6.412;2023-02-21T22:37:00;33.85;;;21.85;;
51485;SDS011;37565;51.352;6.412;2023-02-21T22:39:30;31.15;;;21.45;;
51485;SDS011;37565;51.352;6.412;2023-02-21T22:41:58;37.75;;;20.45;;
51485;SDS011;37565;51.352;6.412;2023-02-21T22:44:30;37.15;;;23.98;;
51485;SDS011;37565;51.352;6.412;2023-02-21T22:46:59;38.95;;;23.60;;
51485;SDS011;37565;51.352;6.412;2023-02-21T22:49:27;31.23;;;19.92;;
51485;SDS011;37565;51.352;6.412;2023-02-21T22:51:55;34.40;;;21.85;;
51485;SDS011;37565;51.352;6.412;2023-02-21T22:54:23;35.47;;;21.60;;
51485;SDS011;37565;51.352;6.412;2023-02-21T22:56:51;33.08;;;19.60;;
51485;SDS011;37565;51.352;6.412;2023-02-21T22:59:20;30.98;;;19.83;;
51485;SDS011;37565;51.352;6.412;2023-02-21T23:01:50;34.08;;;22.65;;
51485;SDS011;37565;51.352;6.412;2023-02-21T23:04:20;28.60;;;20.10;;
51485;SDS011;37565;51.352;6.412;2023-02-21T23:06:52;31.85;;;20.30;;
51485;SDS011;37565;51.352;6.412;2023-02-21T23:09:23;27.75;;;18.80;;
51485;SDS011;37565;51.352;6.412;2023-02-21T23:11:52;34.47;;;21.73;;
51485;SDS011;37565;51.352;6.412;2023-02-21T23:14:21;29.60;;;20.45;;
51485;SDS011;37565;51.352;6.412;2023-02-21T23:16:49;30.67;;;20.52;;
51485;SDS011;37565;51.352;6.412;2023-02-21T23:19:24;31.05;;;21.50;;
51485;SDS011;37565;51.352;6.412;2023-02-21T23:21:52;34.20;;;22.80;;
51485;SDS011;37565;51.352;6.412;2023-02-21T23:24:22;37.20;;;23.67;;
51485;SDS011;37565;51.352;6.412;2023-02-21T23:26:51;34.35;;;21.52;;
51485;SDS011;37565;51.352;6.412;2023-02-21T23:29:20;38.72;;;21.77;;
51485;SDS011;37565;51.352;6.412;2023-02-21T23:31:50;37.72;;;21.85;;
51485;SDS011;37565;51.352;6.412;2023-02-21T23:34:21;36.53;;;20.73;;
51485;SDS011;37565;51.352;6.412;2023-02-21T23:37:05;33.10;;;22.17;;
51485;SDS011;37565;51.352;6.412;2023-02-21T23:39:33;32.88;;;22.38;;
51485;SDS011;37565;51.352;6.412;2023-02-21T23:42:01;41.70;;;23.50;;
51485;SDS011;37565;51.352;6.412;2023-02-21T23:44:29;41.50;;;25.58;;
51485;SDS011;37565;51.352;6.412;2023-02-21T23:47:01;39.83;;;25.90;;
51485;SDS011;37565;51.352;6.412;2023-02-21T23:49:32;38.25;;;24.70;;
51485;SDS011;37565;51.352;6.412;2023-02-21T23:52:00;37.72;;;26.85;;
51485;SDS011;37565;51.352;6.412;2023-02-21T23:54:28;42.67;;;26.95;;
51485;SDS011;37565;51.352;6.412;2023-02-21T23:56:56;46.08;;;27.23;;
51485;SDS011;37565;51.352;6.412;2023-02-21T23:59:25;46.10;;;28.27;;
